Gogama, Canada
Current Conditions -  °F | °C
As of 9:00 AM on Friday 31 Oct 2014 (Local Time) from CYTS Reporting Station
Light Snow Light Snow  
Wind Chill: 13°   Ceiling: 1000
Heat Index: 25°   Visibility: 4mi
Dew Point: 23°   Wind: 13mph
Humidity: 93%   Direction: 360°N
Pressure: 30.21"   Gusts: 18mph
Location:  47.67°N, 81.72°W
Report Text: CYTS 311300Z 36011G16KT 310V010 4SM -SG BKN010 M04/M05 A3021 RMK SF7 CIG RAG SLP248
Loading
Personal Weather Stations






























Interactive Weather Map New forecast layout! Learn more

10-Day Weather Forecast

Advertisements
Track Severe Weather on mobile